sensor_id;sensor_type;location;lat;lon;timestamp;pressure;altitude;pressure_sealevel;temperature
42119;BMP280;27783;42.782;23.274;2023-02-21T00:00:46;95919.25;;;4.35
42119;BMP280;27783;42.782;23.274;2023-02-21T00:03:32;95916.00;;;4.38
42119;BMP280;27783;42.782;23.274;2023-02-21T00:06:19;95912.72;;;4.41
42119;BMP280;27783;42.782;23.274;2023-02-21T00:09:04;95905.66;;;4.42
42119;BMP280;27783;42.782;23.274;2023-02-21T00:11:48;95916.72;;;4.50
42119;BMP280;27783;42.782;23.274;2023-02-21T00:14:36;95918.38;;;4.58
42119;BMP280;27783;42.782;23.274;2023-02-21T00:17:23;95903.41;;;4.55
42119;BMP280;27783;42.782;23.274;2023-02-21T00:20:09;95907.59;;;4.45
42119;BMP280;27783;42.782;23.274;2023-02-21T00:22:52;95904.38;;;4.36
42119;BMP280;27783;42.782;23.274;2023-02-21T00:25:36;95899.56;;;4.38
42119;BMP280;27783;42.782;23.274;2023-02-21T00:28:20;95892.84;;;4.37
42119;BMP280;27783;42.782;23.274;2023-02-21T00:31:06;95903.41;;;4.55
42119;BMP280;27783;42.782;23.274;2023-02-21T00:33:51;95906.88;;;4.59
42119;BMP280;27783;42.782;23.274;2023-02-21T00:36:43;95902.91;;;4.65
42119;BMP280;27783;42.782;23.274;2023-02-21T00:39:35;95917.41;;;4.78
42119;BMP280;27783;42.782;23.274;2023-02-21T00:42:22;95903.25;;;4.79
42119;BMP280;27783;42.782;23.274;2023-02-21T00:45:10;95889.72;;;4.73
42119;BMP280;27783;42.782;23.274;2023-02-21T00:47:56;95891.72;;;4.80
42119;BMP280;27783;42.782;23.274;2023-02-21T00:50:40;95882.56;;;4.85
42119;BMP280;27783;42.782;23.274;2023-02-21T00:53:24;95880.09;;;4.92
42119;BMP280;27783;42.782;23.274;2023-02-21T00:56:10;95869.56;;;5.04
42119;BMP280;27783;42.782;23.274;2023-02-21T00:58:53;95857.25;;;5.19
42119;BMP280;27783;42.782;23.274;2023-02-21T01:01:38;95848.97;;;5.32
42119;BMP280;27783;42.782;23.274;2023-02-21T01:04:22;95838.06;;;5.46
42119;BMP280;27783;42.782;23.274;2023-02-21T01:07:08;95842.59;;;5.48
42119;BMP280;27783;42.782;23.274;2023-02-21T01:09:53;95826.78;;;5.60
42119;BMP280;27783;42.782;23.274;2023-02-21T01:12:38;95824.28;;;5.64
42119;BMP280;27783;42.782;23.274;2023-02-21T01:15:22;95826.63;;;5.68
42119;BMP280;27783;42.782;23.274;2023-02-21T01:18:07;95834.53;;;5.72
42119;BMP280;27783;42.782;23.274;2023-02-21T01:20:54;95834.75;;;5.82
42119;BMP280;27783;42.782;23.274;2023-02-21T01:23:39;95823.72;;;5.73
42119;BMP280;27783;42.782;23.274;2023-02-21T01:26:24;95819.41;;;5.81
42119;BMP280;27783;42.782;23.274;2023-02-21T01:29:10;95822.94;;;5.69
42119;BMP280;27783;42.782;23.274;2023-02-21T01:32:00;95829.19;;;5.65
42119;BMP280;27783;42.782;23.274;2023-02-21T01:34:53;95821.41;;;5.68
42119;BMP280;27783;42.782;23.274;2023-02-21T01:37:39;95812.78;;;5.68
42119;BMP280;27783;42.782;23.274;2023-02-21T01:40:25;95818.63;;;5.62
42119;BMP280;27783;42.782;23.274;2023-02-21T01:43:19;95822.25;;;5.57
42119;BMP280;27783;42.782;23.274;2023-02-21T01:46:13;95808.63;;;5.48
42119;BMP280;27783;42.782;23.274;2023-02-21T01:49:00;95798.72;;;5.39
42119;BMP280;27783;42.782;23.274;2023-02-21T01:51:44;95799.81;;;5.38
42119;BMP280;27783;42.782;23.274;2023-02-21T01:54:36;95799.66;;;5.31
42119;BMP280;27783;42.782;23.274;2023-02-21T01:57:22;95804.03;;;5.27
42119;BMP280;27783;42.782;23.274;2023-02-21T02:00:39;95789.63;;;5.33
42119;BMP280;27783;42.782;23.274;2023-02-21T02:03:23;95792.41;;;5.40
42119;BMP280;27783;42.782;23.274;2023-02-21T02:06:09;95795.00;;;5.40
42119;BMP280;27783;42.782;23.274;2023-02-21T02:08:54;95771.75;;;5.35
42119;BMP280;27783;42.782;23.274;2023-02-21T02:12:02;95777.53;;;5.44
42119;BMP280;27783;42.782;23.274;2023-02-21T02:26:29;95770.75;;;5.24
42119;BMP280;27783;42.782;23.274;2023-02-21T02:29:11;95765.97;;;5.26
42119;BMP280;27783;42.782;23.274;2023-02-21T02:37:50;95773.19;;;5.32
42119;BMP280;27783;42.782;23.274;2023-02-21T02:43:25;95752.25;;;5.14
42119;BMP280;27783;42.782;23.274;2023-02-21T02:46:26;95769.03;;;5.13
42119;BMP280;27783;42.782;23.274;2023-02-21T02:49:02;95768.88;;;5.06
42119;BMP280;27783;42.782;23.274;2023-02-21T02:51:32;95754.69;;;5.22
42119;BMP280;27783;42.782;23.274;2023-02-21T02:53:59;95761.84;;;5.44
42119;BMP280;27783;42.782;23.274;2023-02-21T02:56:24;95753.31;;;5.47
42119;BMP280;27783;42.782;23.274;2023-02-21T02:59:21;95757.31;;;5.59
42119;BMP280;27783;42.782;23.274;2023-02-21T03:18:42;95747.06;;;5.32
42119;BMP280;27783;42.782;23.274;2023-02-21T03:21:18;95746.22;;;5.10
42119;BMP280;27783;42.782;23.274;2023-02-21T03:23:50;95740.72;;;5.15
42119;BMP280;27783;42.782;23.274;2023-02-21T03:26:17;95745.03;;;5.08
42119;BMP280;27783;42.782;23.274;2023-02-21T03:28:43;95738.03;;;5.12
42119;BMP280;27783;42.782;23.274;2023-02-21T03:31:12;95748.06;;;5.10
42119;BMP280;27783;42.782;23.274;2023-02-21T03:33:40;95749.34;;;5.00
42119;BMP280;27783;42.782;23.274;2023-02-21T03:36:07;95750.38;;;4.96
42119;BMP280;27783;42.782;23.274;2023-02-21T03:38:42;95753.22;;;4.91
42119;BMP280;27783;42.782;23.274;2023-02-21T03:41:09;95752.41;;;4.87
42119;BMP280;27783;42.782;23.274;2023-02-21T03:43:37;95753.75;;;4.82
42119;BMP280;27783;42.782;23.274;2023-02-21T03:46:02;95753.59;;;4.75
42119;BMP280;27783;42.782;23.274;2023-02-21T03:48:29;95755.81;;;4.58
42119;BMP280;27783;42.782;23.274;2023-02-21T03:51:06;95760.63;;;4.56
42119;BMP280;27783;42.782;23.274;2023-02-21T03:53:32;95753.81;;;4.36
42119;BMP280;27783;42.782;23.274;2023-02-21T03:55:59;95761.28;;;4.38
42119;BMP280;27783;42.782;23.274;2023-02-21T03:58:25;95761.19;;;4.65
42119;BMP280;27783;42.782;23.274;2023-02-21T04:00:52;95752.75;;;4.86
42119;BMP280;27783;42.782;23.274;2023-02-21T04:03:27;95761.00;;;4.88
42119;BMP280;27783;42.782;23.274;2023-02-21T04:05:52;95766.91;;;4.85
42119;BMP280;27783;42.782;23.274;2023-02-21T04:08:18;95765.09;;;4.70
42119;BMP280;27783;42.782;23.274;2023-02-21T04:10:43;95763.56;;;4.54
42119;BMP280;27783;42.782;23.274;2023-02-21T04:13:09;95773.59;;;4.52
42119;BMP280;27783;42.782;23.274;2023-02-21T04:15:59;95772.13;;;4.25
42119;BMP280;27783;42.782;23.274;2023-02-21T04:18:26;95782.50;;;4.21
42119;BMP280;27783;42.782;23.274;2023-02-21T04:20:52;95791.25;;;4.14
42119;BMP280;27783;42.782;23.274;2023-02-21T04:23:20;95786.28;;;4.24
42119;BMP280;27783;42.782;23.274;2023-02-21T04:26:11;95791.28;;;4.44
42119;BMP280;27783;42.782;23.274;2023-02-21T04:28:39;95787.22;;;4.61
42119;BMP280;27783;42.782;23.274;2023-02-21T04:31:04;95801.13;;;4.80
42119;BMP280;27783;42.782;23.274;2023-02-21T04:33:33;95803.88;;;4.87
42119;BMP280;27783;42.782;23.274;2023-02-21T04:36:02;95810.13;;;4.82
42119;BMP280;27783;42.782;23.274;2023-02-21T04:38:29;95800.00;;;4.81
42119;BMP280;27783;42.782;23.274;2023-02-21T04:40:54;95802.53;;;4.78
42119;BMP280;27783;42.782;23.274;2023-02-21T04:43:19;95793.69;;;4.82
42119;BMP280;27783;42.782;23.274;2023-02-21T04:45:45;95792.41;;;4.91
42119;BMP280;27783;42.782;23.274;2023-02-21T04:48:13;95784.09;;;4.71
42119;BMP280;27783;42.782;23.274;2023-02-21T04:50:43;95787.28;;;4.80
42119;BMP280;27783;42.782;23.274;2023-02-21T04:53:08;95772.31;;;4.77
42119;BMP280;27783;42.782;23.274;2023-02-21T04:55:41;95755.81;;;4.73
42119;BMP280;27783;42.782;23.274;2023-02-21T04:58:06;95754.28;;;4.87
42119;BMP280;27783;42.782;23.274;2023-02-21T05:00:32;95765.09;;;5.04
42119;BMP280;27783;42.782;23.274;2023-02-21T05:02:57;95764.81;;;4.90
42119;BMP280;27783;42.782;23.274;2023-02-21T05:05:23;95764.47;;;4.77
42119;BMP280;27783;42.782;23.274;2023-02-21T05:07:49;95767.34;;;4.72
42119;BMP280;27783;42.782;23.274;2023-02-21T05:10:30;95770.09;;;4.94
42119;BMP280;27783;42.782;23.274;2023-02-21T05:12:58;95762.06;;;5.02
42119;BMP280;27783;42.782;23.274;2023-02-21T05:15:30;95757.84;;;5.13
42119;BMP280;27783;42.782;23.274;2023-02-21T05:17:58;95762.91;;;5.06
42119;BMP280;27783;42.782;23.274;2023-02-21T05:20:24;95759.13;;;5.03
42119;BMP280;27783;42.782;23.274;2023-02-21T05:22:51;95756.84;;;5.02
42119;BMP280;27783;42.782;23.274;2023-02-21T05:25:19;95761.34;;;4.86
42119;BMP280;27783;42.782;23.274;2023-02-21T05:27:47;95764.56;;;4.65
42119;BMP280;27783;42.782;23.274;2023-02-21T05:30:15;95763.66;;;4.43
42119;BMP280;27783;42.782;23.274;2023-02-21T05:32:41;95769.47;;;4.36
42119;BMP280;27783;42.782;23.274;2023-02-21T05:35:07;95764.59;;;4.20
42119;BMP280;27783;42.782;23.274;2023-02-21T05:37:34;95760.84;;;4.06
42119;BMP280;27783;42.782;23.274;2023-02-21T05:40:05;95770.38;;;4.14
42119;BMP280;27783;42.782;23.274;2023-02-21T05:42:32;95778.94;;;3.99
42119;BMP280;27783;42.782;23.274;2023-02-21T05:45:00;95778.78;;;4.07
42119;BMP280;27783;42.782;23.274;2023-02-21T05:47:27;95771.66;;;4.19
42119;BMP280;27783;42.782;23.274;2023-02-21T05:49:52;95776.72;;;4.28
42119;BMP280;27783;42.782;23.274;2023-02-21T05:52:18;95781.25;;;4.46
42119;BMP280;27783;42.782;23.274;2023-02-21T05:54:44;95786.13;;;4.62
42119;BMP280;27783;42.782;23.274;2023-02-21T05:57:10;95784.94;;;4.90
42119;BMP280;27783;42.782;23.274;2023-02-21T05:59:36;95798.25;;;5.18
42119;BMP280;27783;42.782;23.274;2023-02-21T06:02:02;95803.16;;;5.20
42119;BMP280;27783;42.782;23.274;2023-02-21T06:04:27;95797.00;;;5.13
42119;BMP280;27783;42.782;23.274;2023-02-21T06:06:53;95794.16;;;5.02
42119;BMP280;27783;42.782;23.274;2023-02-21T06:09:19;95799.78;;;5.04
42119;BMP280;27783;42.782;23.274;2023-02-21T06:11:44;95801.28;;;5.20
42119;BMP280;27783;42.782;23.274;2023-02-21T06:14:16;95789.63;;;5.33
42119;BMP280;27783;42.782;23.274;2023-02-21T06:16:43;95789.91;;;5.47
42119;BMP280;27783;42.782;23.274;2023-02-21T06:19:09;95790.28;;;5.64
42119;BMP280;27783;42.782;23.274;2023-02-21T06:21:36;95783.75;;;5.73
42119;BMP280;27783;42.782;23.274;2023-02-21T06:24:03;95791.88;;;5.86
42119;BMP280;27783;42.782;23.274;2023-02-21T06:26:28;95781.81;;;5.88
42119;BMP280;27783;42.782;23.274;2023-02-21T06:28:54;95793.84;;;6.11
42119;BMP280;27783;42.782;23.274;2023-02-21T06:31:20;95791.50;;;6.25
42119;BMP280;27783;42.782;23.274;2023-02-21T06:33:46;95789.84;;;6.39
42119;BMP280;27783;42.782;23.274;2023-02-21T06:36:15;95789.25;;;6.45
42119;BMP280;27783;42.782;23.274;2023-02-21T06:38:44;95800.94;;;6.51
42119;BMP280;27783;42.782;23.274;2023-02-21T06:41:10;95790.44;;;6.73
42119;BMP280;27783;42.782;23.274;2023-02-21T06:43:36;95790.88;;;6.78
42119;BMP280;27783;42.782;23.274;2023-02-21T06:46:02;95785.47;;;6.90
42119;BMP280;27783;42.782;23.274;2023-02-21T06:48:28;95787.16;;;7.01
42119;BMP280;27783;42.782;23.274;2023-02-21T06:50:54;95789.88;;;7.08
42119;BMP280;27783;42.782;23.274;2023-02-21T06:53:19;95784.47;;;6.98
42119;BMP280;27783;42.782;23.274;2023-02-21T06:55:44;95797.47;;;7.16
42119;BMP280;27783;42.782;23.274;2023-02-21T06:58:10;95794.56;;;7.24
42119;BMP280;27783;42.782;23.274;2023-02-21T07:00:35;95793.53;;;7.57
42119;BMP280;27783;42.782;23.274;2023-02-21T07:03:01;95795.56;;;7.67
42119;BMP280;27783;42.782;23.274;2023-02-21T07:05:26;95788.56;;;7.78
42119;BMP280;27783;42.782;23.274;2023-02-21T07:07:53;95800.13;;;8.02
42119;BMP280;27783;42.782;23.274;2023-02-21T07:10:18;95803.22;;;8.43
42119;BMP280;27783;42.782;23.274;2023-02-21T07:12:44;95796.66;;;8.66
42119;BMP280;27783;42.782;23.274;2023-02-21T07:15:09;95790.78;;;8.79
42119;BMP280;27783;42.782;23.274;2023-02-21T07:17:35;95795.06;;;9.00
42119;BMP280;27783;42.782;23.274;2023-02-21T07:20:00;95794.06;;;9.15
42119;BMP280;27783;42.782;23.274;2023-02-21T07:22:25;95792.41;;;9.52
42119;BMP280;27783;42.782;23.274;2023-02-21T07:24:55;95786.47;;;9.65
42119;BMP280;27783;42.782;23.274;2023-02-21T07:27:21;95784.69;;;9.76
42119;BMP280;27783;42.782;23.274;2023-02-21T07:29:47;95777.63;;;9.97
42119;BMP280;27783;42.782;23.274;2023-02-21T07:32:13;95779.84;;;9.95
42119;BMP280;27783;42.782;23.274;2023-02-21T07:34:39;95773.50;;;9.99
42119;BMP280;27783;42.782;23.274;2023-02-21T07:37:05;95765.97;;;10.08
42119;BMP280;27783;42.782;23.274;2023-02-21T07:39:31;95769.31;;;9.95
42119;BMP280;27783;42.782;23.274;2023-02-21T07:41:57;95762.91;;;9.89
42119;BMP280;27783;42.782;23.274;2023-02-21T07:44:22;95769.25;;;9.82
42119;BMP280;27783;42.782;23.274;2023-02-21T07:46:48;95757.00;;;10.19
42119;BMP280;27783;42.782;23.274;2023-02-21T07:49:17;95752.53;;;10.84
42119;BMP280;27783;42.782;23.274;2023-02-21T07:51:42;95744.22;;;11.10
42119;BMP280;27783;42.782;23.274;2023-02-21T07:54:08;95748.38;;;11.04
42119;BMP280;27783;42.782;23.274;2023-02-21T07:56:33;95739.34;;;11.39
42119;BMP280;27783;42.782;23.274;2023-02-21T07:58:58;95743.03;;;11.65
42119;BMP280;27783;42.782;23.274;2023-02-21T08:01:25;95738.56;;;11.42
42119;BMP280;27783;42.782;23.274;2023-02-21T08:03:51;95732.91;;;11.36
42119;BMP280;27783;42.782;23.274;2023-02-21T08:06:16;95729.53;;;11.32
42119;BMP280;27783;42.782;23.274;2023-02-21T08:08:45;95733.28;;;11.49
42119;BMP280;27783;42.782;23.274;2023-02-21T08:11:10;95731.72;;;11.61
42119;BMP280;27783;42.782;23.274;2023-02-21T08:13:35;95724.53;;;11.72
42119;BMP280;27783;42.782;23.274;2023-02-21T08:16:01;95732.00;;;11.87
42119;BMP280;27783;42.782;23.274;2023-02-21T08:18:27;95721.63;;;12.19
42119;BMP280;27783;42.782;23.274;2023-02-21T08:20:54;95721.06;;;11.85
42119;BMP280;27783;42.782;23.274;2023-02-21T08:23:20;95717.28;;;11.82
42119;BMP280;27783;42.782;23.274;2023-02-21T08:25:46;95716.50;;;11.85
42119;BMP280;27783;42.782;23.274;2023-02-21T08:28:12;95719.44;;;12.08
42119;BMP280;27783;42.782;23.274;2023-02-21T08:30:38;95715.44;;;12.43
42119;BMP280;27783;42.782;23.274;2023-02-21T08:33:04;95704.66;;;12.77
42119;BMP280;27783;42.782;23.274;2023-02-21T08:35:29;95696.03;;;13.45
42119;BMP280;27783;42.782;23.274;2023-02-21T08:37:55;95698.16;;;13.56
42119;BMP280;27783;42.782;23.274;2023-02-21T08:40:22;95689.75;;;13.97
42119;BMP280;27783;42.782;23.274;2023-02-21T08:42:49;95689.63;;;14.07
42119;BMP280;27783;42.782;23.274;2023-02-21T08:45:16;95687.50;;;13.63
42119;BMP280;27783;42.782;23.274;2023-02-21T08:47:43;95692.56;;;13.51
42119;BMP280;27783;42.782;23.274;2023-02-21T08:50:08;95683.19;;;13.79
42119;BMP280;27783;42.782;23.274;2023-02-21T08:52:34;95690.50;;;13.98
42119;BMP280;27783;42.782;23.274;2023-02-21T08:54:59;95696.81;;;14.07
42119;BMP280;27783;42.782;23.274;2023-02-21T08:57:25;95691.19;;;14.05
42119;BMP280;27783;42.782;23.274;2023-02-21T08:59:50;95701.88;;;14.24
42119;BMP280;27783;42.782;23.274;2023-02-21T09:02:22;95699.19;;;14.27
42119;BMP280;27783;42.782;23.274;2023-02-21T09:04:49;95689.09;;;14.45
42119;BMP280;27783;42.782;23.274;2023-02-21T09:07:16;95686.00;;;14.72
42119;BMP280;27783;42.782;23.274;2023-02-21T09:09:41;95674.81;;;14.83
42119;BMP280;27783;42.782;23.274;2023-02-21T09:12:07;95677.47;;;15.28
42119;BMP280;27783;42.782;23.274;2023-02-21T09:14:34;95668.97;;;15.55
42119;BMP280;27783;42.782;23.274;2023-02-21T09:17:01;95669.25;;;15.42
42119;BMP280;27783;42.782;23.274;2023-02-21T09:19:27;95678.09;;;15.54
42119;BMP280;27783;42.782;23.274;2023-02-21T09:21:52;95680.69;;;16.15
42119;BMP280;27783;42.782;23.274;2023-02-21T09:24:20;95678.84;;;16.12
42119;BMP280;27783;42.782;23.274;2023-02-21T09:26:57;95670.13;;;16.11
42119;BMP280;27783;42.782;23.274;2023-02-21T09:29:24;95667.00;;;15.97
42119;BMP280;27783;42.782;23.274;2023-02-21T09:31:50;95674.91;;;16.35
42119;BMP280;27783;42.782;23.274;2023-02-21T09:34:15;95656.97;;;16.54
42119;BMP280;27783;42.782;23.274;2023-02-21T09:36:41;95663.56;;;16.66
42119;BMP280;27783;42.782;23.274;2023-02-21T09:39:07;95654.47;;;16.63
42119;BMP280;27783;42.782;23.274;2023-02-21T09:41:37;95651.91;;;16.75
42119;BMP280;27783;42.782;23.274;2023-02-21T09:44:05;95643.59;;;17.04
42119;BMP280;27783;42.782;23.274;2023-02-21T09:46:39;95636.34;;;17.05
42119;BMP280;27783;42.782;23.274;2023-02-21T09:49:32;95633.69;;;17.60
42119;BMP280;27783;42.782;23.274;2023-02-21T09:51:57;95628.97;;;17.52
42119;BMP280;27783;42.782;23.274;2023-02-21T09:54:36;95628.59;;;17.78
42119;BMP280;27783;42.782;23.274;2023-02-21T09:57:05;95625.50;;;17.67
42119;BMP280;27783;42.782;23.274;2023-02-21T09:59:36;95616.97;;;18.36
42119;BMP280;27783;42.782;23.274;2023-02-21T10:02:17;95616.19;;;18.48
42119;BMP280;27783;42.782;23.274;2023-02-21T10:05:21;95605.31;;;17.94
42119;BMP280;27783;42.782;23.274;2023-02-21T10:08:03;95609.28;;;18.38
42119;BMP280;27783;42.782;23.274;2023-02-21T10:10:38;95618.56;;;18.34
42119;BMP280;27783;42.782;23.274;2023-02-21T10:15:47;95608.19;;;18.48
42119;BMP280;27783;42.782;23.274;2023-02-21T10:18:33;95600.53;;;18.50
42119;BMP280;27783;42.782;23.274;2023-02-21T10:21:03;95603.88;;;18.86
42119;BMP280;27783;42.782;23.274;2023-02-21T10:23:38;95591.09;;;18.82
42119;BMP280;27783;42.782;23.274;2023-02-21T10:26:08;95588.47;;;20.07
42119;BMP280;27783;42.782;23.274;2023-02-21T10:28:34;95578.22;;;19.43
42119;BMP280;27783;42.782;23.274;2023-02-21T10:31:08;95579.56;;;19.38
42119;BMP280;27783;42.782;23.274;2023-02-21T10:33:37;95584.34;;;19.22
42119;BMP280;27783;42.782;23.274;2023-02-21T10:36:16;95576.63;;;19.24
42119;BMP280;27783;42.782;23.274;2023-02-21T10:38:50;95573.97;;;19.66
42119;BMP280;27783;42.782;23.274;2023-02-21T10:41:17;95562.75;;;19.80
42119;BMP280;27783;42.782;23.274;2023-02-21T10:43:45;95564.69;;;19.79
42119;BMP280;27783;42.782;23.274;2023-02-21T10:48:40;95556.09;;;20.52
42119;BMP280;27783;42.782;23.274;2023-02-21T10:51:08;95558.50;;;20.20
42119;BMP280;27783;42.782;23.274;2023-02-21T10:53:36;95533.34;;;20.18
42119;BMP280;27783;42.782;23.274;2023-02-21T10:58:43;95530.81;;;20.15
42119;BMP280;27783;42.782;23.274;2023-02-21T11:03:48;95520.38;;;20.46
42119;BMP280;27783;42.782;23.274;2023-02-21T11:08:55;95495.13;;;20.73
42119;BMP280;27783;42.782;23.274;2023-02-21T11:11:40;95502.22;;;20.59
42119;BMP280;27783;42.782;23.274;2023-02-21T11:14:26;95497.66;;;20.77
42119;BMP280;27783;42.782;23.274;2023-02-21T11:17:20;95501.00;;;20.42
42119;BMP280;27783;42.782;23.274;2023-02-21T11:22:22;95501.34;;;20.53
42119;BMP280;27783;42.782;23.274;2023-02-21T11:27:23;95483.66;;;21.25
42119;BMP280;27783;42.782;23.274;2023-02-21T11:29:50;95484.44;;;20.26
42119;BMP280;27783;42.782;23.274;2023-02-21T11:32:25;95477.09;;;20.65
42119;BMP280;27783;42.782;23.274;2023-02-21T11:34:59;95476.34;;;20.56
42119;BMP280;27783;42.782;23.274;2023-02-21T11:37:26;95475.31;;;20.53
42119;BMP280;27783;42.782;23.274;2023-02-21T11:39:53;95459.25;;;21.15
42119;BMP280;27783;42.782;23.274;2023-02-21T11:42:31;95448.06;;;21.83
42119;BMP280;27783;42.782;23.274;2023-02-21T11:45:27;95458.50;;;20.62
42119;BMP280;27783;42.782;23.274;2023-02-21T11:47:59;95456.09;;;20.81
42119;BMP280;27783;42.782;23.274;2023-02-21T11:50:29;95450.16;;;21.03
42119;BMP280;27783;42.782;23.274;2023-02-21T11:56:04;95424.66;;;21.25
42119;BMP280;27783;42.782;23.274;2023-02-21T12:01:27;95420.38;;;21.19
42119;BMP280;27783;42.782;23.274;2023-02-21T12:27:37;95361.53;;;21.16
42119;BMP280;27783;42.782;23.274;2023-02-21T12:36:02;95348.53;;;21.95
42119;BMP280;27783;42.782;23.274;2023-02-21T12:47:31;95332.53;;;21.46
42119;BMP280;27783;42.782;23.274;2023-02-21T12:50:13;95338.06;;;21.42
42119;BMP280;27783;42.782;23.274;2023-02-21T12:52:56;95334.09;;;21.92
42119;BMP280;27783;42.782;23.274;2023-02-21T12:55:28;95333.50;;;21.57
42119;BMP280;27783;42.782;23.274;2023-02-21T13:00:46;95325.34;;;21.52
42119;BMP280;27783;42.782;23.274;2023-02-21T13:11:55;95313.75;;;22.00
42119;BMP280;27783;42.782;23.274;2023-02-21T13:14:29;95310.16;;;21.49
42119;BMP280;27783;42.782;23.274;2023-02-21T13:16:56;95311.72;;;21.95
42119;BMP280;27783;42.782;23.274;2023-02-21T13:19:23;95308.47;;;21.28
42119;BMP280;27783;42.782;23.274;2023-02-21T13:24:41;95295.38;;;21.21
42119;BMP280;27783;42.782;23.274;2023-02-21T13:30:27;95291.47;;;21.63
42119;BMP280;27783;42.782;23.274;2023-02-21T13:33:03;95292.19;;;21.63
42119;BMP280;27783;42.782;23.274;2023-02-21T13:35:34;95293.97;;;21.66
42119;BMP280;27783;42.782;23.274;2023-02-21T13:38:00;95293.75;;;21.55
42119;BMP280;27783;42.782;23.274;2023-02-21T13:41:07;95292.34;;;21.37
42119;BMP280;27783;42.782;23.274;2023-02-21T13:43:48;95287.22;;;21.16
42119;BMP280;27783;42.782;23.274;2023-02-21T13:52:36;95266.38;;;21.20
42119;BMP280;27783;42.782;23.274;2023-02-21T14:08:42;95269.28;;;20.90
42119;BMP280;27783;42.782;23.274;2023-02-21T14:13:38;95268.63;;;21.04
42119;BMP280;27783;42.782;23.274;2023-02-21T14:18:49;95281.88;;;21.07
42119;BMP280;27783;42.782;23.274;2023-02-21T14:26:49;95274.38;;;21.29
42119;BMP280;27783;42.782;23.274;2023-02-21T14:29:43;95276.75;;;20.87
42119;BMP280;27783;42.782;23.274;2023-02-21T14:48:31;95265.84;;;19.80
42119;BMP280;27783;42.782;23.274;2023-02-21T14:51:18;95263.00;;;20.09
42119;BMP280;27783;42.782;23.274;2023-02-21T14:59:18;95261.66;;;19.79
42119;BMP280;27783;42.782;23.274;2023-02-21T15:04:53;95258.53;;;19.54
42119;BMP280;27783;42.782;23.274;2023-02-21T15:12:45;95249.94;;;19.68
42119;BMP280;27783;42.782;23.274;2023-02-21T15:15:33;95248.78;;;19.30
42119;BMP280;27783;42.782;23.274;2023-02-21T15:18:10;95252.88;;;19.05
42119;BMP280;27783;42.782;23.274;2023-02-21T15:20:39;95256.03;;;19.12
42119;BMP280;27783;42.782;23.274;2023-02-21T15:23:16;95260.06;;;18.57
42119;BMP280;27783;42.782;23.274;2023-02-21T15:25:55;95258.06;;;18.70
42119;BMP280;27783;42.782;23.274;2023-02-21T15:28:26;95261.00;;;18.93
42119;BMP280;27783;42.782;23.274;2023-02-21T15:30:58;95262.66;;;18.40
42119;BMP280;27783;42.782;23.274;2023-02-21T15:33:24;95268.31;;;18.51
42119;BMP280;27783;42.782;23.274;2023-02-21T15:35:57;95265.69;;;18.30
42119;BMP280;27783;42.782;23.274;2023-02-21T15:38:33;95267.56;;;18.20
42119;BMP280;27783;42.782;23.274;2023-02-21T15:41:25;95274.13;;;18.28
42119;BMP280;27783;42.782;23.274;2023-02-21T15:43:56;95277.22;;;18.06
42119;BMP280;27783;42.782;23.274;2023-02-21T15:46:28;95275.94;;;17.77
42119;BMP280;27783;42.782;23.274;2023-02-21T15:48:59;95281.88;;;17.36
42119;BMP280;27783;42.782;23.274;2023-02-21T15:51:25;95284.78;;;17.41
42119;BMP280;27783;42.782;23.274;2023-02-21T15:56:42;95287.22;;;17.36
42119;BMP280;27783;42.782;23.274;2023-02-21T15:59:27;95282.66;;;17.24
42119;BMP280;27783;42.782;23.274;2023-02-21T16:04:35;95283.72;;;16.78
42119;BMP280;27783;42.782;23.274;2023-02-21T16:10:08;95292.31;;;16.46
42119;BMP280;27783;42.782;23.274;2023-02-21T16:12:38;95288.31;;;16.26
42119;BMP280;27783;42.782;23.274;2023-02-21T16:17:43;95296.41;;;16.34
42119;BMP280;27783;42.782;23.274;2023-02-21T16:20:19;95303.69;;;16.06
42119;BMP280;27783;42.782;23.274;2023-02-21T16:23:25;95300.81;;;15.85
42119;BMP280;27783;42.782;23.274;2023-02-21T16:28:42;95314.66;;;15.50
42119;BMP280;27783;42.782;23.274;2023-02-21T16:31:15;95307.78;;;15.21
42119;BMP280;27783;42.782;23.274;2023-02-21T16:33:42;95310.00;;;14.72
42119;BMP280;27783;42.782;23.274;2023-02-21T16:36:18;95311.22;;;14.33
42119;BMP280;27783;42.782;23.274;2023-02-21T16:38:46;95316.31;;;13.87
42119;BMP280;27783;42.782;23.274;2023-02-21T16:41:26;95315.22;;;13.84
42119;BMP280;27783;42.782;23.274;2023-02-21T16:43:51;95332.59;;;11.73
42119;BMP280;27783;42.782;23.274;2023-02-21T16:46:25;95332.53;;;11.40
42119;BMP280;27783;42.782;23.274;2023-02-21T16:48:55;95333.16;;;12.52
42119;BMP280;27783;42.782;23.274;2023-02-21T16:51:24;95330.13;;;13.08
42119;BMP280;27783;42.782;23.274;2023-02-21T16:53:49;95331.19;;;13.36
42119;BMP280;27783;42.782;23.274;2023-02-21T16:56:15;95327.75;;;13.14
42119;BMP280;27783;42.782;23.274;2023-02-21T16:58:44;95326.75;;;12.82
42119;BMP280;27783;42.782;23.274;2023-02-21T17:01:13;95328.06;;;12.67
42119;BMP280;27783;42.782;23.274;2023-02-21T17:03:40;95325.94;;;12.85
42119;BMP280;27783;42.782;23.274;2023-02-21T17:06:16;95327.81;;;12.84
42119;BMP280;27783;42.782;23.274;2023-02-21T17:08:44;95327.72;;;12.66
42119;BMP280;27783;42.782;23.274;2023-02-21T17:11:12;95327.94;;;12.78
42119;BMP280;27783;42.782;23.274;2023-02-21T17:13:37;95333.72;;;12.69
42119;BMP280;27783;42.782;23.274;2023-02-21T17:16:03;95341.84;;;11.91
42119;BMP280;27783;42.782;23.274;2023-02-21T17:18:29;95343.03;;;11.86
42119;BMP280;27783;42.782;23.274;2023-02-21T17:20:57;95346.88;;;12.15
42119;BMP280;27783;42.782;23.274;2023-02-21T17:23:25;95344.13;;;11.89
42119;BMP280;27783;42.782;23.274;2023-02-21T17:25:53;95348.72;;;10.30
42119;BMP280;27783;42.782;23.274;2023-02-21T17:28:18;95350.72;;;10.79
42119;BMP280;27783;42.782;23.274;2023-02-21T17:30:44;95353.91;;;10.50
42119;BMP280;27783;42.782;23.274;2023-02-21T17:33:09;95363.69;;;10.49
42119;BMP280;27783;42.782;23.274;2023-02-21T17:35:36;95362.06;;;10.69
42119;BMP280;27783;42.782;23.274;2023-02-21T17:38:02;95365.31;;;10.16
42119;BMP280;27783;42.782;23.274;2023-02-21T17:40:28;95366.81;;;10.17
42119;BMP280;27783;42.782;23.274;2023-02-21T17:42:54;95356.22;;;10.34